Hampton, VA (23665)

6:13 AM EST on January 27, 2015 (GMT -0500)
Nelson Farms | Change Station
CLOSE
Current Station
Personal Weather Station
Location: Hampton, VA
Elevation: 23 ft
Nearby Weather Stations
Active Advisory: Winter Weather Advisory Active Notice: Public Information Statement

Elev 23 ft 37.07 °N, 76.42 °W | Updated 26 seconds ago

Light Snow
Light Snow
28.9 °F
Feels Like 29 °F
N
2.7
Wind Variable Wind from ENE
Gusts 5.8 mph

Today
High -- | Low -- °F
--% Chance of Precip.
Yesterday
High -- | Low -- °F
Precip. -- in
7:12 AM 5:24 PM
First Quarter, 53% visible
Pressure 29.72 in
Visibility 8.0 miles
Clouds Overcast 1300 ft
Windchill 29 °F
Dew Point 28 °F
Humidity 97%
Rainfall 0.00 in
Snow Depth Not available.
UV 0 out of 12
Pollen .80 out of 12
Air Quality Not available.
Flu Activity Not available.
METAR KLFI 271058Z AUTO 34008KT 8SM R08/5500FT -SN OVC013 M01/M03 A2970 RMK AO2 SLP064 P0000 T10131033 $

More Conditions Fewer Conditions

Pressure 29.72 in
Visibility 8.0 miles
Clouds Overcast 1300 ft
Windchill 29 °F
Dew Point 28 °F
Humidity 97%
Rainfall 0.00 in
Snow Depth Not available.
UV 0 out of 12
Pollen .80 out of 12
Air Quality Not available.
Flu Activity Not available.
METAR KLFI 271058Z AUTO 34008KT 8SM R08/5500FT -SN OVC013 M01/M03 A2970 RMK AO2 SLP064 P0000 T10131033 $

More Conditions Fewer Conditions

10-Day Weather Forecast

Almanac

Astronomy

Jan. 27, 2015 Rise Set
Actual Time
Civil Twilight
Nautical Twilight
Astronomical Twilight
Moon
Length of Visible Light
Length of Day
Tomorrow will be .
, % of the Moon is Illuminated

Today's Extremes

State Highs State Lows

Community

WunderPhotos

Upload Photos

1,790,564 photos uploaded!

WunderBlogs® & News

Nearby

Air Quality

  Air Quality AQ Index Pollutant
Not available.

Snow Depth

Station Depth Elevation

Earthquake Activity

City Distance Mag. Time & Date
Minimum magnitude displayed is 2.5.

Coastal Water Temperatures

Place Temperature

Nearby Weather Stations